sensor_id;sensor_type;location;lat;lon;timestamp;P1;durP1;ratioP1;P2;durP2;ratioP2
19687;SDS011;9993;52.008;4.732;2022-08-19T00:02:04;19.58;;;11.98;;
19687;SDS011;9993;52.008;4.732;2022-08-19T00:04:31;18.75;;;11.88;;
19687;SDS011;9993;52.008;4.732;2022-08-19T00:06:57;20.90;;;12.20;;
19687;SDS011;9993;52.008;4.732;2022-08-19T00:09:23;22.85;;;11.18;;
19687;SDS011;9993;52.008;4.732;2022-08-19T00:11:48;20.48;;;12.48;;
19687;SDS011;9993;52.008;4.732;2022-08-19T00:14:14;21.15;;;11.77;;
19687;SDS011;9993;52.008;4.732;2022-08-19T00:16:40;16.45;;;10.77;;
19687;SDS011;9993;52.008;4.732;2022-08-19T00:19:06;17.88;;;9.98;;
19687;SDS011;9993;52.008;4.732;2022-08-19T00:21:32;18.63;;;10.75;;
19687;SDS011;9993;52.008;4.732;2022-08-19T00:23:57;17.17;;;11.15;;
19687;SDS011;9993;52.008;4.732;2022-08-19T00:26:26;16.05;;;10.52;;
19687;SDS011;9993;52.008;4.732;2022-08-19T00:28:52;17.70;;;11.02;;
19687;SDS011;9993;52.008;4.732;2022-08-19T00:31:17;21.33;;;11.45;;
19687;SDS011;9993;52.008;4.732;2022-08-19T00:33:42;17.52;;;11.38;;
19687;SDS011;9993;52.008;4.732;2022-08-19T00:36:08;19.98;;;11.13;;
19687;SDS011;9993;52.008;4.732;2022-08-19T00:38:34;23.00;;;12.45;;
19687;SDS011;9993;52.008;4.732;2022-08-19T00:40:59;25.17;;;14.13;;
19687;SDS011;9993;52.008;4.732;2022-08-19T00:43:25;29.88;;;14.55;;
19687;SDS011;9993;52.008;4.732;2022-08-19T00:45:51;30.42;;;16.25;;
19687;SDS011;9993;52.008;4.732;2022-08-19T00:48:17;37.10;;;18.38;;
19687;SDS011;9993;52.008;4.732;2022-08-19T00:50:43;38.92;;;18.40;;
19687;SDS011;9993;52.008;4.732;2022-08-19T00:53:09;36.75;;;18.75;;
19687;SDS011;9993;52.008;4.732;2022-08-19T00:55:34;41.78;;;21.20;;
19687;SDS011;9993;52.008;4.732;2022-08-19T00:58:04;48.97;;;23.42;;
19687;SDS011;9993;52.008;4.732;2022-08-19T01:00:32;53.30;;;23.67;;
19687;SDS011;9993;52.008;4.732;2022-08-19T01:03:01;54.20;;;23.58;;
19687;SDS011;9993;52.008;4.732;2022-08-19T01:05:27;55.88;;;22.48;;
19687;SDS011;9993;52.008;4.732;2022-08-19T01:07:54;58.25;;;24.02;;
19687;SDS011;9993;52.008;4.732;2022-08-19T01:10:20;52.25;;;23.33;;
19687;SDS011;9993;52.008;4.732;2022-08-19T01:12:47;49.08;;;23.08;;
19687;SDS011;9993;52.008;4.732;2022-08-19T01:15:14;55.22;;;24.45;;
19687;SDS011;9993;52.008;4.732;2022-08-19T01:17:40;58.58;;;24.38;;
19687;SDS011;9993;52.008;4.732;2022-08-19T01:20:07;58.53;;;24.40;;
19687;SDS011;9993;52.008;4.732;2022-08-19T01:25:32;47.67;;;22.55;;
19687;SDS011;9993;52.008;4.732;2022-08-19T01:28:00;53.97;;;22.88;;
19687;SDS011;9993;52.008;4.732;2022-08-19T01:30:27;46.75;;;22.17;;
19687;SDS011;9993;52.008;4.732;2022-08-19T01:32:53;51.40;;;24.00;;
19687;SDS011;9993;52.008;4.732;2022-08-19T01:37:55;49.95;;;22.75;;
19687;SDS011;9993;52.008;4.732;2022-08-19T01:40:21;45.75;;;21.90;;
19687;SDS011;9993;52.008;4.732;2022-08-19T01:42:48;39.60;;;20.65;;
19687;SDS011;9993;52.008;4.732;2022-08-19T01:45:13;42.83;;;19.70;;
19687;SDS011;9993;52.008;4.732;2022-08-19T01:47:39;34.90;;;17.85;;
19687;SDS011;9993;52.008;4.732;2022-08-19T01:50:05;36.70;;;18.35;;
19687;SDS011;9993;52.008;4.732;2022-08-19T01:52:30;37.65;;;17.77;;
19687;SDS011;9993;52.008;4.732;2022-08-19T01:54:56;33.08;;;16.35;;
19687;SDS011;9993;52.008;4.732;2022-08-19T01:57:21;37.33;;;18.35;;
19687;SDS011;9993;52.008;4.732;2022-08-19T01:59:46;34.72;;;17.15;;
19687;SDS011;9993;52.008;4.732;2022-08-19T02:02:11;30.70;;;16.02;;
19687;SDS011;9993;52.008;4.732;2022-08-19T02:04:37;30.45;;;16.48;;
19687;SDS011;9993;52.008;4.732;2022-08-19T02:07:03;31.25;;;15.95;;
19687;SDS011;9993;52.008;4.732;2022-08-19T02:09:28;24.48;;;15.02;;
19687;SDS011;9993;52.008;4.732;2022-08-19T02:11:55;28.05;;;15.10;;
19687;SDS011;9993;52.008;4.732;2022-08-19T02:14:20;32.60;;;14.80;;
19687;SDS011;9993;52.008;4.732;2022-08-19T02:16:45;23.75;;;14.40;;
19687;SDS011;9993;52.008;4.732;2022-08-19T02:19:11;25.70;;;13.93;;
19687;SDS011;9993;52.008;4.732;2022-08-19T02:21:36;24.83;;;13.77;;
19687;SDS011;9993;52.008;4.732;2022-08-19T02:24:02;25.38;;;13.75;;
19687;SDS011;9993;52.008;4.732;2022-08-19T02:26:27;20.92;;;12.82;;
19687;SDS011;9993;52.008;4.732;2022-08-19T02:28:53;23.65;;;12.45;;
19687;SDS011;9993;52.008;4.732;2022-08-19T02:31:20;23.42;;;13.40;;
19687;SDS011;9993;52.008;4.732;2022-08-19T02:33:48;23.88;;;13.23;;
19687;SDS011;9993;52.008;4.732;2022-08-19T02:36:14;21.90;;;13.25;;
19687;SDS011;9993;52.008;4.732;2022-08-19T02:38:40;25.63;;;12.90;;
19687;SDS011;9993;52.008;4.732;2022-08-19T02:41:08;24.55;;;13.23;;
19687;SDS011;9993;52.008;4.732;2022-08-19T02:43:35;24.77;;;13.57;;
19687;SDS011;9993;52.008;4.732;2022-08-19T02:46:02;20.58;;;12.65;;
19687;SDS011;9993;52.008;4.732;2022-08-19T02:48:27;26.13;;;13.38;;
19687;SDS011;9993;52.008;4.732;2022-08-19T02:50:53;22.48;;;13.70;;
19687;SDS011;9993;52.008;4.732;2022-08-19T02:53:22;26.23;;;13.57;;
19687;SDS011;9993;52.008;4.732;2022-08-19T02:55:50;29.38;;;15.25;;
19687;SDS011;9993;52.008;4.732;2022-08-19T02:58:19;29.63;;;14.73;;
19687;SDS011;9993;52.008;4.732;2022-08-19T03:00:48;28.67;;;14.73;;
19687;SDS011;9993;52.008;4.732;2022-08-19T03:03:14;28.15;;;15.18;;
19687;SDS011;9993;52.008;4.732;2022-08-19T03:05:40;30.00;;;15.38;;
19687;SDS011;9993;52.008;4.732;2022-08-19T03:08:06;29.48;;;14.90;;
19687;SDS011;9993;52.008;4.732;2022-08-19T03:10:31;30.35;;;15.00;;
19687;SDS011;9993;52.008;4.732;2022-08-19T03:12:57;26.83;;;14.88;;
19687;SDS011;9993;52.008;4.732;2022-08-19T03:15:22;32.53;;;16.08;;
19687;SDS011;9993;52.008;4.732;2022-08-19T03:17:47;38.40;;;18.67;;
19687;SDS011;9993;52.008;4.732;2022-08-19T03:20:12;29.67;;;15.25;;
19687;SDS011;9993;52.008;4.732;2022-08-19T03:22:38;32.75;;;16.13;;
19687;SDS011;9993;52.008;4.732;2022-08-19T03:25:03;35.58;;;17.05;;
19687;SDS011;9993;52.008;4.732;2022-08-19T03:27:28;35.92;;;15.73;;
19687;SDS011;9993;52.008;4.732;2022-08-19T03:29:54;32.40;;;16.20;;
19687;SDS011;9993;52.008;4.732;2022-08-19T03:32:19;30.90;;;14.80;;
19687;SDS011;9993;52.008;4.732;2022-08-19T03:34:46;35.80;;;17.13;;
19687;SDS011;9993;52.008;4.732;2022-08-19T03:37:12;44.25;;;19.77;;
19687;SDS011;9993;52.008;4.732;2022-08-19T03:39:37;44.63;;;20.30;;
19687;SDS011;9993;52.008;4.732;2022-08-19T03:42:03;46.00;;;21.40;;
19687;SDS011;9993;52.008;4.732;2022-08-19T03:44:29;40.83;;;18.88;;
19687;SDS011;9993;52.008;4.732;2022-08-19T03:46:56;57.72;;;23.05;;
19687;SDS011;9993;52.008;4.732;2022-08-19T03:49:22;59.92;;;24.20;;
19687;SDS011;9993;52.008;4.732;2022-08-19T03:51:48;56.97;;;25.23;;
19687;SDS011;9993;52.008;4.732;2022-08-19T03:54:15;64.78;;;25.35;;
19687;SDS011;9993;52.008;4.732;2022-08-19T03:56:42;68.88;;;24.75;;
19687;SDS011;9993;52.008;4.732;2022-08-19T03:59:10;63.67;;;25.98;;
19687;SDS011;9993;52.008;4.732;2022-08-19T04:01:36;81.00;;;30.98;;
19687;SDS011;9993;52.008;4.732;2022-08-19T04:04:01;76.60;;;29.00;;
19687;SDS011;9993;52.008;4.732;2022-08-19T04:06:30;86.93;;;29.88;;
19687;SDS011;9993;52.008;4.732;2022-08-19T04:08:56;87.35;;;30.73;;
19687;SDS011;9993;52.008;4.732;2022-08-19T04:11:23;80.20;;;29.67;;
19687;SDS011;9993;52.008;4.732;2022-08-19T04:13:49;85.97;;;29.40;;
19687;SDS011;9993;52.008;4.732;2022-08-19T04:16:16;83.70;;;29.80;;
19687;SDS011;9993;52.008;4.732;2022-08-19T04:18:42;86.00;;;30.60;;
19687;SDS011;9993;52.008;4.732;2022-08-19T04:21:08;89.30;;;29.73;;
19687;SDS011;9993;52.008;4.732;2022-08-19T04:23:34;86.40;;;30.02;;
19687;SDS011;9993;52.008;4.732;2022-08-19T04:26:00;79.65;;;30.17;;
19687;SDS011;9993;52.008;4.732;2022-08-19T04:28:26;106.95;;;34.28;;
19687;SDS011;9993;52.008;4.732;2022-08-19T04:30:52;110.03;;;34.38;;
19687;SDS011;9993;52.008;4.732;2022-08-19T04:33:19;113.65;;;35.33;;
19687;SDS011;9993;52.008;4.732;2022-08-19T04:35:45;108.47;;;35.75;;
19687;SDS011;9993;52.008;4.732;2022-08-19T04:38:11;138.90;;;39.97;;
19687;SDS011;9993;52.008;4.732;2022-08-19T04:40:40;132.15;;;38.20;;
19687;SDS011;9993;52.008;4.732;2022-08-19T04:43:25;137.10;;;39.67;;
19687;SDS011;9993;52.008;4.732;2022-08-19T04:45:50;147.45;;;39.97;;
19687;SDS011;9993;52.008;4.732;2022-08-19T04:48:16;151.70;;;42.75;;
19687;SDS011;9993;52.008;4.732;2022-08-19T04:50:42;156.60;;;42.45;;
19687;SDS011;9993;52.008;4.732;2022-08-19T04:53:08;156.13;;;41.08;;
19687;SDS011;9993;52.008;4.732;2022-08-19T04:55:33;154.32;;;44.80;;
19687;SDS011;9993;52.008;4.732;2022-08-19T04:58:00;149.82;;;43.63;;
19687;SDS011;9993;52.008;4.732;2022-08-19T05:00:27;146.05;;;41.75;;
19687;SDS011;9993;52.008;4.732;2022-08-19T05:02:52;157.93;;;43.67;;
19687;SDS011;9993;52.008;4.732;2022-08-19T05:05:17;157.50;;;43.90;;
19687;SDS011;9993;52.008;4.732;2022-08-19T05:07:42;164.93;;;45.45;;
19687;SDS011;9993;52.008;4.732;2022-08-19T05:10:08;153.95;;;44.30;;
19687;SDS011;9993;52.008;4.732;2022-08-19T05:12:33;160.38;;;44.30;;
19687;SDS011;9993;52.008;4.732;2022-08-19T05:14:58;159.93;;;45.95;;
19687;SDS011;9993;52.008;4.732;2022-08-19T05:17:24;156.00;;;43.95;;
19687;SDS011;9993;52.008;4.732;2022-08-19T05:19:50;153.32;;;40.65;;
19687;SDS011;9993;52.008;4.732;2022-08-19T05:22:34;157.93;;;42.92;;
19687;SDS011;9993;52.008;4.732;2022-08-19T05:25:04;158.07;;;42.30;;
19687;SDS011;9993;52.008;4.732;2022-08-19T05:27:30;155.18;;;42.95;;
19687;SDS011;9993;52.008;4.732;2022-08-19T05:29:55;155.02;;;43.17;;
19687;SDS011;9993;52.008;4.732;2022-08-19T05:32:20;151.25;;;43.72;;
19687;SDS011;9993;52.008;4.732;2022-08-19T05:34:48;145.45;;;43.20;;
19687;SDS011;9993;52.008;4.732;2022-08-19T05:37:13;147.80;;;40.40;;
19687;SDS011;9993;52.008;4.732;2022-08-19T05:39:38;155.13;;;44.35;;
19687;SDS011;9993;52.008;4.732;2022-08-19T05:42:06;129.90;;;40.63;;
19687;SDS011;9993;52.008;4.732;2022-08-19T05:44:33;145.27;;;43.47;;
19687;SDS011;9993;52.008;4.732;2022-08-19T05:46:59;154.18;;;44.63;;
19687;SDS011;9993;52.008;4.732;2022-08-19T05:49:25;141.13;;;43.55;;
19687;SDS011;9993;52.008;4.732;2022-08-19T05:51:53;132.13;;;39.60;;
19687;SDS011;9993;52.008;4.732;2022-08-19T05:54:19;127.97;;;41.85;;
19687;SDS011;9993;52.008;4.732;2022-08-19T05:56:45;142.57;;;41.60;;
19687;SDS011;9993;52.008;4.732;2022-08-19T05:59:13;119.68;;;40.47;;
19687;SDS011;9993;52.008;4.732;2022-08-19T06:01:39;117.18;;;38.72;;
19687;SDS011;9993;52.008;4.732;2022-08-19T06:04:05;124.55;;;39.22;;
19687;SDS011;9993;52.008;4.732;2022-08-19T06:06:31;126.47;;;38.75;;
19687;SDS011;9993;52.008;4.732;2022-08-19T06:08:58;118.70;;;39.72;;
19687;SDS011;9993;52.008;4.732;2022-08-19T06:11:30;115.93;;;38.50;;
19687;SDS011;9993;52.008;4.732;2022-08-19T06:13:57;103.30;;;39.35;;
19687;SDS011;9993;52.008;4.732;2022-08-19T06:16:24;109.72;;;37.50;;
19687;SDS011;9993;52.008;4.732;2022-08-19T06:18:50;94.78;;;35.40;;
19687;SDS011;9993;52.008;4.732;2022-08-19T06:21:19;102.80;;;36.90;;
19687;SDS011;9993;52.008;4.732;2022-08-19T06:23:45;96.68;;;36.08;;
19687;SDS011;9993;52.008;4.732;2022-08-19T06:26:12;92.38;;;35.88;;
19687;SDS011;9993;52.008;4.732;2022-08-19T06:28:37;89.70;;;35.10;;
19687;SDS011;9993;52.008;4.732;2022-08-19T06:31:07;90.38;;;35.35;;
19687;SDS011;9993;52.008;4.732;2022-08-19T06:33:33;77.28;;;34.85;;
19687;SDS011;9993;52.008;4.732;2022-08-19T06:35:58;78.68;;;34.70;;
19687;SDS011;9993;52.008;4.732;2022-08-19T06:38:23;79.40;;;34.75;;
19687;SDS011;9993;52.008;4.732;2022-08-19T06:40:49;77.53;;;33.38;;
19687;SDS011;9993;52.008;4.732;2022-08-19T06:43:14;68.85;;;32.22;;
19687;SDS011;9993;52.008;4.732;2022-08-19T06:45:40;62.90;;;31.38;;
19687;SDS011;9993;52.008;4.732;2022-08-19T06:48:06;69.35;;;34.28;;
19687;SDS011;9993;52.008;4.732;2022-08-19T06:50:32;72.85;;;33.65;;
19687;SDS011;9993;52.008;4.732;2022-08-19T06:52:57;71.03;;;33.55;;
19687;SDS011;9993;52.008;4.732;2022-08-19T06:55:22;63.88;;;33.78;;
19687;SDS011;9993;52.008;4.732;2022-08-19T06:57:47;69.18;;;35.45;;
19687;SDS011;9993;52.008;4.732;2022-08-19T07:00:13;63.03;;;30.70;;
19687;SDS011;9993;52.008;4.732;2022-08-19T07:02:42;60.67;;;31.00;;
19687;SDS011;9993;52.008;4.732;2022-08-19T07:05:08;56.67;;;31.33;;
19687;SDS011;9993;52.008;4.732;2022-08-19T07:07:33;54.85;;;29.30;;
19687;SDS011;9993;52.008;4.732;2022-08-19T07:09:59;51.80;;;28.42;;
19687;SDS011;9993;52.008;4.732;2022-08-19T07:12:24;52.58;;;25.60;;
19687;SDS011;9993;52.008;4.732;2022-08-19T07:14:51;53.20;;;27.75;;
19687;SDS011;9993;52.008;4.732;2022-08-19T07:17:17;49.67;;;26.23;;
19687;SDS011;9993;52.008;4.732;2022-08-19T07:19:43;47.15;;;27.80;;
19687;SDS011;9993;52.008;4.732;2022-08-19T07:22:09;46.33;;;26.55;;
19687;SDS011;9993;52.008;4.732;2022-08-19T07:24:34;44.60;;;25.50;;
19687;SDS011;9993;52.008;4.732;2022-08-19T07:27:01;40.03;;;24.33;;
19687;SDS011;9993;52.008;4.732;2022-08-19T07:29:28;46.40;;;24.10;;
19687;SDS011;9993;52.008;4.732;2022-08-19T07:31:54;37.28;;;24.02;;
19687;SDS011;9993;52.008;4.732;2022-08-19T07:34:21;35.67;;;22.75;;
19687;SDS011;9993;52.008;4.732;2022-08-19T07:36:47;40.10;;;24.42;;
19687;SDS011;9993;52.008;4.732;2022-08-19T07:39:14;48.40;;;25.38;;
19687;SDS011;9993;52.008;4.732;2022-08-19T07:41:39;35.45;;;23.40;;
19687;SDS011;9993;52.008;4.732;2022-08-19T07:44:06;40.30;;;23.73;;
19687;SDS011;9993;52.008;4.732;2022-08-19T07:46:33;37.83;;;23.85;;
19687;SDS011;9993;52.008;4.732;2022-08-19T07:48:58;37.28;;;23.08;;
19687;SDS011;9993;52.008;4.732;2022-08-19T07:51:25;35.28;;;23.05;;
19687;SDS011;9993;52.008;4.732;2022-08-19T07:53:51;34.97;;;23.13;;
19687;SDS011;9993;52.008;4.732;2022-08-19T07:56:17;37.30;;;24.25;;
19687;SDS011;9993;52.008;4.732;2022-08-19T07:58:43;34.30;;;23.65;;
19687;SDS011;9993;52.008;4.732;2022-08-19T08:01:10;38.58;;;25.40;;
19687;SDS011;9993;52.008;4.732;2022-08-19T08:03:36;35.03;;;23.55;;
19687;SDS011;9993;52.008;4.732;2022-08-19T08:06:20;30.85;;;21.88;;
19687;SDS011;9993;52.008;4.732;2022-08-19T08:09:04;32.35;;;22.92;;
19687;SDS011;9993;52.008;4.732;2022-08-19T08:11:39;29.33;;;21.48;;
19687;SDS011;9993;52.008;4.732;2022-08-19T08:14:05;29.67;;;20.75;;
19687;SDS011;9993;52.008;4.732;2022-08-19T08:16:33;29.27;;;20.17;;
19687;SDS011;9993;52.008;4.732;2022-08-19T08:18:59;29.10;;;19.58;;
19687;SDS011;9993;52.008;4.732;2022-08-19T08:21:25;29.23;;;19.08;;
19687;SDS011;9993;52.008;4.732;2022-08-19T08:23:50;26.55;;;20.15;;
19687;SDS011;9993;52.008;4.732;2022-08-19T08:26:17;23.65;;;19.35;;
19687;SDS011;9993;52.008;4.732;2022-08-19T08:28:42;34.13;;;23.63;;
19687;SDS011;9993;52.008;4.732;2022-08-19T08:31:07;33.22;;;21.02;;
19687;SDS011;9993;52.008;4.732;2022-08-19T08:33:32;30.73;;;20.43;;
19687;SDS011;9993;52.008;4.732;2022-08-19T08:35:57;35.17;;;23.02;;
19687;SDS011;9993;52.008;4.732;2022-08-19T08:38:23;37.47;;;22.00;;
19687;SDS011;9993;52.008;4.732;2022-08-19T08:40:49;34.55;;;22.88;;
19687;SDS011;9993;52.008;4.732;2022-08-19T08:45:47;31.67;;;23.27;;
19687;SDS011;9993;52.008;4.732;2022-08-19T08:48:21;30.35;;;22.73;;
19687;SDS011;9993;52.008;4.732;2022-08-19T08:50:47;29.40;;;20.85;;
19687;SDS011;9993;52.008;4.732;2022-08-19T08:53:16;32.90;;;23.20;;
19687;SDS011;9993;52.008;4.732;2022-08-19T08:55:42;32.03;;;22.02;;
19687;SDS011;9993;52.008;4.732;2022-08-19T08:58:28;33.95;;;22.23;;
19687;SDS011;9993;52.008;4.732;2022-08-19T09:00:55;31.77;;;22.00;;
19687;SDS011;9993;52.008;4.732;2022-08-19T09:03:22;30.88;;;21.48;;
19687;SDS011;9993;52.008;4.732;2022-08-19T09:08:17;30.73;;;21.50;;
19687;SDS011;9993;52.008;4.732;2022-08-19T09:10:44;29.80;;;20.17;;
19687;SDS011;9993;52.008;4.732;2022-08-19T09:15:56;29.65;;;19.92;;
19687;SDS011;9993;52.008;4.732;2022-08-19T09:18:23;27.27;;;17.33;;
19687;SDS011;9993;52.008;4.732;2022-08-19T09:20:48;27.38;;;18.98;;
19687;SDS011;9993;52.008;4.732;2022-08-19T09:23:13;22.27;;;17.48;;
19687;SDS011;9993;52.008;4.732;2022-08-19T09:25:39;24.90;;;16.20;;
19687;SDS011;9993;52.008;4.732;2022-08-19T09:28:05;28.20;;;18.98;;
19687;SDS011;9993;52.008;4.732;2022-08-19T09:30:31;24.30;;;18.88;;
19687;SDS011;9993;52.008;4.732;2022-08-19T09:32:57;23.75;;;17.35;;
19687;SDS011;9993;52.008;4.732;2022-08-19T09:35:25;26.67;;;17.58;;
19687;SDS011;9993;52.008;4.732;2022-08-19T09:37:50;30.15;;;18.77;;
19687;SDS011;9993;52.008;4.732;2022-08-19T09:40:16;21.20;;;17.13;;
19687;SDS011;9993;52.008;4.732;2022-08-19T09:42:42;27.00;;;17.27;;
19687;SDS011;9993;52.008;4.732;2022-08-19T09:45:08;25.30;;;18.80;;
19687;SDS011;9993;52.008;4.732;2022-08-19T09:47:34;22.83;;;17.08;;
19687;SDS011;9993;52.008;4.732;2022-08-19T09:50:02;23.13;;;16.70;;
19687;SDS011;9993;52.008;4.732;2022-08-19T09:52:28;22.33;;;17.08;;
19687;SDS011;9993;52.008;4.732;2022-08-19T09:54:53;24.13;;;18.25;;
19687;SDS011;9993;52.008;4.732;2022-08-19T09:57:18;22.45;;;16.52;;
19687;SDS011;9993;52.008;4.732;2022-08-19T09:59:43;19.53;;;16.40;;
19687;SDS011;9993;52.008;4.732;2022-08-19T10:02:09;20.10;;;16.63;;
19687;SDS011;9993;52.008;4.732;2022-08-19T10:04:35;20.65;;;16.77;;
19687;SDS011;9993;52.008;4.732;2022-08-19T10:07:19;20.90;;;15.40;;
19687;SDS011;9993;52.008;4.732;2022-08-19T10:09:44;17.83;;;14.52;;
19687;SDS011;9993;52.008;4.732;2022-08-19T10:12:10;19.35;;;15.57;;
19687;SDS011;9993;52.008;4.732;2022-08-19T10:14:35;19.75;;;15.18;;
19687;SDS011;9993;52.008;4.732;2022-08-19T10:17:01;22.17;;;14.07;;
19687;SDS011;9993;52.008;4.732;2022-08-19T10:19:27;19.67;;;14.35;;
19687;SDS011;9993;52.008;4.732;2022-08-19T10:21:53;14.23;;;12.73;;
19687;SDS011;9993;52.008;4.732;2022-08-19T10:24:18;19.92;;;13.85;;
19687;SDS011;9993;52.008;4.732;2022-08-19T10:26:45;15.75;;;13.52;;
19687;SDS011;9993;52.008;4.732;2022-08-19T10:29:13;20.17;;;14.70;;
19687;SDS011;9993;52.008;4.732;2022-08-19T10:31:41;16.73;;;13.55;;
19687;SDS011;9993;52.008;4.732;2022-08-19T10:34:18;18.35;;;13.88;;
19687;SDS011;9993;52.008;4.732;2022-08-19T10:36:44;19.48;;;14.90;;
19687;SDS011;9993;52.008;4.732;2022-08-19T10:42:19;17.85;;;13.57;;
19687;SDS011;9993;52.008;4.732;2022-08-19T10:44:45;16.58;;;13.65;;
19687;SDS011;9993;52.008;4.732;2022-08-19T10:47:17;19.50;;;13.93;;
19687;SDS011;9993;52.008;4.732;2022-08-19T10:49:42;18.42;;;13.82;;
19687;SDS011;9993;52.008;4.732;2022-08-19T10:52:29;18.15;;;12.10;;
19687;SDS011;9993;52.008;4.732;2022-08-19T10:54:58;16.45;;;11.48;;
19687;SDS011;9993;52.008;4.732;2022-08-19T10:57:42;12.68;;;9.23;;
19687;SDS011;9993;52.008;4.732;2022-08-19T11:00:07;10.20;;;8.40;;
19687;SDS011;9993;52.008;4.732;2022-08-19T11:02:33;11.15;;;8.50;;
19687;SDS011;9993;52.008;4.732;2022-08-19T11:04:58;10.27;;;8.00;;
19687;SDS011;9993;52.008;4.732;2022-08-19T11:07:31;11.10;;;8.60;;
19687;SDS011;9993;52.008;4.732;2022-08-19T11:09:56;8.52;;;7.18;;
19687;SDS011;9993;52.008;4.732;2022-08-19T11:12:21;8.93;;;7.07;;
19687;SDS011;9993;52.008;4.732;2022-08-19T11:14:47;9.95;;;7.63;;
19687;SDS011;9993;52.008;4.732;2022-08-19T11:17:14;11.18;;;7.68;;
19687;SDS011;9993;52.008;4.732;2022-08-19T11:19:40;8.95;;;7.28;;
19687;SDS011;9993;52.008;4.732;2022-08-19T11:22:07;8.05;;;7.00;;
19687;SDS011;9993;52.008;4.732;2022-08-19T11:24:36;9.77;;;7.38;;
19687;SDS011;9993;52.008;4.732;2022-08-19T11:27:03;6.90;;;6.20;;
19687;SDS011;9993;52.008;4.732;2022-08-19T11:29:29;7.05;;;5.68;;
19687;SDS011;9993;52.008;4.732;2022-08-19T11:31:55;7.15;;;6.03;;
19687;SDS011;9993;52.008;4.732;2022-08-19T11:34:21;7.32;;;5.63;;
19687;SDS011;9993;52.008;4.732;2022-08-19T11:36:47;7.28;;;5.32;;
19687;SDS011;9993;52.008;4.732;2022-08-19T11:39:14;5.40;;;4.53;;
19687;SDS011;9993;52.008;4.732;2022-08-19T11:41:39;5.82;;;4.80;;
19687;SDS011;9993;52.008;4.732;2022-08-19T11:44:05;6.72;;;4.70;;
19687;SDS011;9993;52.008;4.732;2022-08-19T11:46:32;5.90;;;4.25;;
19687;SDS011;9993;52.008;4.732;2022-08-19T11:48:58;7.20;;;5.03;;
19687;SDS011;9993;52.008;4.732;2022-08-19T11:51:24;5.38;;;4.85;;
19687;SDS011;9993;52.008;4.732;2022-08-19T11:53:50;5.60;;;4.57;;
19687;SDS011;9993;52.008;4.732;2022-08-19T11:56:18;6.32;;;4.53;;
19687;SDS011;9993;52.008;4.732;2022-08-19T11:58:43;5.38;;;4.50;;
19687;SDS011;9993;52.008;4.732;2022-08-19T12:01:09;6.53;;;4.55;;
19687;SDS011;9993;52.008;4.732;2022-08-19T12:03:36;6.65;;;4.70;;
19687;SDS011;9993;52.008;4.732;2022-08-19T12:06:09;5.45;;;4.32;;
19687;SDS011;9993;52.008;4.732;2022-08-19T12:08:34;5.97;;;3.85;;
19687;SDS011;9993;52.008;4.732;2022-08-19T12:11:00;5.03;;;3.45;;
19687;SDS011;9993;52.008;4.732;2022-08-19T12:13:28;5.40;;;3.50;;
19687;SDS011;9993;52.008;4.732;2022-08-19T12:15:53;5.35;;;3.20;;
19687;SDS011;9993;52.008;4.732;2022-08-19T12:18:19;3.42;;;2.60;;
19687;SDS011;9993;52.008;4.732;2022-08-19T12:20:44;4.78;;;3.10;;
19687;SDS011;9993;52.008;4.732;2022-08-19T12:23:10;6.72;;;2.80;;
19687;SDS011;9993;52.008;4.732;2022-08-19T12:25:36;4.10;;;2.90;;
19687;SDS011;9993;52.008;4.732;2022-08-19T12:28:01;4.22;;;3.10;;
19687;SDS011;9993;52.008;4.732;2022-08-19T12:30:27;3.30;;;3.08;;
19687;SDS011;9993;52.008;4.732;2022-08-19T12:32:52;5.15;;;2.75;;
19687;SDS011;9993;52.008;4.732;2022-08-19T12:35:17;5.43;;;3.05;;
19687;SDS011;9993;52.008;4.732;2022-08-19T12:37:44;4.15;;;2.83;;
19687;SDS011;9993;52.008;4.732;2022-08-19T12:40:10;3.80;;;2.80;;
19687;SDS011;9993;52.008;4.732;2022-08-19T12:42:37;4.00;;;2.70;;
19687;SDS011;9993;52.008;4.732;2022-08-19T12:45:02;2.38;;;2.03;;
19687;SDS011;9993;52.008;4.732;2022-08-19T12:47:28;3.38;;;2.10;;
19687;SDS011;9993;52.008;4.732;2022-08-19T12:49:53;2.80;;;2.50;;
19687;SDS011;9993;52.008;4.732;2022-08-19T12:52:19;2.65;;;2.13;;
19687;SDS011;9993;52.008;4.732;2022-08-19T12:54:46;5.60;;;4.35;;
19687;SDS011;9993;52.008;4.732;2022-08-19T12:57:11;5.03;;;4.15;;
19687;SDS011;9993;52.008;4.732;2022-08-19T12:59:37;6.32;;;4.60;;
19687;SDS011;9993;52.008;4.732;2022-08-19T13:02:03;5.97;;;5.30;;
19687;SDS011;9993;52.008;4.732;2022-08-19T13:04:30;8.60;;;5.70;;
19687;SDS011;9993;52.008;4.732;2022-08-19T13:06:56;8.20;;;5.95;;
19687;SDS011;9993;52.008;4.732;2022-08-19T13:09:22;7.57;;;5.57;;
19687;SDS011;9993;52.008;4.732;2022-08-19T13:11:49;7.55;;;4.70;;
19687;SDS011;9993;52.008;4.732;2022-08-19T13:14:15;6.78;;;4.47;;
19687;SDS011;9993;52.008;4.732;2022-08-19T13:16:49;5.45;;;4.28;;
19687;SDS011;9993;52.008;4.732;2022-08-19T13:19:20;4.88;;;4.25;;
19687;SDS011;9993;52.008;4.732;2022-08-19T13:21:51;6.10;;;4.82;;
19687;SDS011;9993;52.008;4.732;2022-08-19T13:24:16;6.93;;;5.20;;
19687;SDS011;9993;52.008;4.732;2022-08-19T13:26:42;11.13;;;5.45;;
19687;SDS011;9993;52.008;4.732;2022-08-19T13:29:07;6.18;;;4.95;;
19687;SDS011;9993;52.008;4.732;2022-08-19T13:31:54;4.47;;;4.07;;
19687;SDS011;9993;52.008;4.732;2022-08-19T13:34:38;5.28;;;4.68;;
19687;SDS011;9993;52.008;4.732;2022-08-19T13:37:04;4.03;;;3.42;;
19687;SDS011;9993;52.008;4.732;2022-08-19T13:39:30;4.63;;;4.13;;
19687;SDS011;9993;52.008;4.732;2022-08-19T13:41:57;4.35;;;3.95;;
19687;SDS011;9993;52.008;4.732;2022-08-19T13:44:24;4.10;;;3.70;;
19687;SDS011;9993;52.008;4.732;2022-08-19T13:46:49;6.70;;;5.13;;
19687;SDS011;9993;52.008;4.732;2022-08-19T13:49:17;6.75;;;5.57;;
19687;SDS011;9993;52.008;4.732;2022-08-19T13:51:43;8.43;;;5.78;;
19687;SDS011;9993;52.008;4.732;2022-08-19T13:54:09;9.00;;;6.38;;
19687;SDS011;9993;52.008;4.732;2022-08-19T13:56:35;9.68;;;7.43;;
19687;SDS011;9993;52.008;4.732;2022-08-19T13:59:04;13.73;;;7.07;;
19687;SDS011;9993;52.008;4.732;2022-08-19T14:01:29;9.35;;;7.45;;
19687;SDS011;9993;52.008;4.732;2022-08-19T14:03:55;10.20;;;8.00;;
19687;SDS011;9993;52.008;4.732;2022-08-19T14:06:20;11.02;;;8.15;;
19687;SDS011;9993;52.008;4.732;2022-08-19T14:08:47;13.98;;;8.30;;
19687;SDS011;9993;52.008;4.732;2022-08-19T14:11:12;12.55;;;8.68;;
19687;SDS011;9993;52.008;4.732;2022-08-19T14:13:37;15.25;;;8.70;;
19687;SDS011;9993;52.008;4.732;2022-08-19T14:16:09;12.93;;;7.60;;
19687;SDS011;9993;52.008;4.732;2022-08-19T14:18:35;12.70;;;8.93;;
19687;SDS011;9993;52.008;4.732;2022-08-19T14:21:00;13.30;;;9.10;;
19687;SDS011;9993;52.008;4.732;2022-08-19T14:23:25;13.82;;;9.65;;
19687;SDS011;9993;52.008;4.732;2022-08-19T14:25:50;13.48;;;9.38;;
19687;SDS011;9993;52.008;4.732;2022-08-19T14:28:16;16.70;;;9.98;;
19687;SDS011;9993;52.008;4.732;2022-08-19T14:30:41;13.45;;;9.52;;
19687;SDS011;9993;52.008;4.732;2022-08-19T14:33:09;12.10;;;8.52;;
19687;SDS011;9993;52.008;4.732;2022-08-19T14:35:34;15.60;;;9.25;;
19687;SDS011;9993;52.008;4.732;2022-08-19T14:38:00;16.00;;;10.05;;
19687;SDS011;9993;52.008;4.732;2022-08-19T14:40:26;12.90;;;8.05;;
19687;SDS011;9993;52.008;4.732;2022-08-19T14:42:53;13.40;;;8.88;;
19687;SDS011;9993;52.008;4.732;2022-08-19T14:45:20;11.30;;;7.15;;
19687;SDS011;9993;52.008;4.732;2022-08-19T14:47:45;10.63;;;6.40;;
19687;SDS011;9993;52.008;4.732;2022-08-19T14:50:11;9.73;;;6.30;;
19687;SDS011;9993;52.008;4.732;2022-08-19T14:52:36;9.38;;;6.93;;